Time;durP1;ratioP1;P1;durP2;ratioP2;P2;SDS_P1;SDS_P2;PMS_P1;PMS_P2;Temp;Humidity;BMP_temperature;BMP_pressure;BME280_temperature;BME280_humidity;BME280_pressure;Samples;Min_cycle;Max_cycle;Signal;HPM_P1;HPM_P2
2023/05/30 00:01:42;;;;;;;4.45;4.35;;;;;;;;;;5126380;23;20024;-58
2023/05/30 00:04:02;;;;;;;4.38;4.18;;;;;;;;;;5126182;23;20027;-59
2023/05/30 00:06:23;;;;;;;3.72;3.58;;;;;;;;;;5126500;23;20027;-59
2023/05/30 00:08:44;;;;;;;4.80;4.50;;;;;;;;;;5126387;23;20083;-58
2023/05/30 00:11:04;;;;;;;3.80;3.70;;;;;;;;;;5123377;23;20044;-58
2023/05/30 00:13:28;;;;;;;5.03;4.78;;;;;;;;;;5126434;23;20052;-59
2023/05/30 00:15:48;;;;;;;4.05;3.90;;;;;;;;;;5126408;23;20024;-59
2023/05/30 00:18:08;;;;;;;5.05;4.68;;;;;;;;;;5126211;23;20099;-59
2023/05/30 00:20:29;;;;;;;3.92;3.70;;;;;;;;;;5126225;23;20032;-59
2023/05/30 00:22:51;;;;;;;3.75;3.60;;;;;;;;;;5105138;23;20024;-58
2023/05/30 00:25:11;;;;;;;5.05;4.95;;;;;;;;;;5126307;23;20208;-59
2023/05/30 00:27:31;;;;;;;4.32;3.90;;;;;;;;;;5125996;23;20249;-59
2023/05/30 00:29:52;;;;;;;4.72;4.43;;;;;;;;;;5126411;23;20024;-58
2023/05/30 00:32:13;;;;;;;3.95;3.83;;;;;;;;;;5126295;23;20043;-58
2023/05/30 00:34:33;;;;;;;4.50;4.30;;;;;;;;;;5126093;23;20024;-59
2023/05/30 00:36:53;;;;;;;5.30;5.18;;;;;;;;;;5126397;23;20070;-59
2023/05/30 00:39:15;;;;;;;5.30;4.70;;;;;;;;;;5126358;23;20216;-59
2023/05/30 00:41:35;;;;;;;5.45;5.20;;;;;;;;;;5126112;23;20059;-59
2023/05/30 00:43:55;;;;;;;4.85;4.38;;;;;;;;;;5126211;23;20067;-59
2023/05/30 00:46:16;;;;;;;4.40;4.30;;;;;;;;;;5126297;23;20331;-59
2023/05/30 00:48:36;;;;;;;4.10;4.00;;;;;;;;;;5126019;23;20028;-59
2023/05/30 00:50:57;;;;;;;4.57;4.38;;;;;;;;;;5126059;23;20054;-59
2023/05/30 00:53:18;;;;;;;6.28;5.95;;;;;;;;;;5126295;23;20247;-59
2023/05/30 00:55:38;;;;;;;4.25;4.15;;;;;;;;;;5126138;23;20031;-59
2023/05/30 00:57:59;;;;;;;7.47;5.18;;;;;;;;;;5126049;23;20208;-59
2023/05/30 01:00:21;;;;;;;4.95;4.63;;;;;;;;;;5126371;23;20085;-59
2023/05/30 01:02:43;;;;;;;5.13;4.95;;;;;;;;;;5126344;23;20024;-59
2023/05/30 01:05:04;;;;;;;5.32;5.22;;;;;;;;;;5126073;23;20028;-58
2023/05/30 01:07:24;;;;;;;4.72;4.63;;;;;;;;;;5126256;23;20024;-59
2023/05/30 01:09:45;;;;;;;4.88;4.57;;;;;;;;;;5125361;23;20027;-59
2023/05/30 01:12:06;;;;;;;3.95;3.70;;;;;;;;;;5125465;23;20024;-59
2023/05/30 01:14:50;;;;;;;5.35;5.00;;;;;;;;;;5126074;23;20028;-59
2023/05/30 01:17:25;;;;;;;5.40;5.10;;;;;;;;;;5126149;23;20028;-59
2023/05/30 01:19:56;;;;;;;5.20;5.05;;;;;;;;;;5126254;23;20023;-59
2023/05/30 01:22:29;;;;;;;5.45;5.05;;;;;;;;;;5126190;23;20028;-59
2023/05/30 01:24:57;;;;;;;5.47;5.38;;;;;;;;;;5126284;23;20024;-59
2023/05/30 01:27:38;;;;;;;5.82;5.40;;;;;;;;;;5125880;23;20063;-59
2023/05/30 01:29:59;;;;;;;5.93;5.72;;;;;;;;;;5050274;23;20024;-59
2023/05/30 01:32:19;;;;;;;5.43;5.07;;;;;;;;;;5104119;23;20081;-58
2023/05/30 01:34:39;;;;;;;4.63;4.22;;;;;;;;;;5126162;23;20375;-59
2023/05/30 01:37:00;;;;;;;4.43;4.32;;;;;;;;;;5103422;23;20036;-59
2023/05/30 01:39:20;;;;;;;5.20;4.88;;;;;;;;;;5104610;23;20051;-59
2023/05/30 01:41:54;;;;;;;5.03;4.93;;;;;;;;;;5126164;23;20075;-59
2023/05/30 01:44:21;;;;;;;5.05;4.60;;;;;;;;;;5126111;23;20032;-58
2023/05/30 01:46:45;;;;;;;5.43;5.22;;;;;;;;;;5125875;23;20153;-59
2023/05/30 01:49:05;;;;;;;6.03;5.72;;;;;;;;;;5125764;23;20052;-59
2023/05/30 01:51:37;;;;;;;4.88;4.70;;;;;;;;;;5126078;23;20048;-59
2023/05/30 01:53:58;;;;;;;5.43;5.30;;;;;;;;;;5126065;23;20052;-59
2023/05/30 01:56:19;;;;;;;5.03;4.93;;;;;;;;;;5125794;23;20244;-59
2023/05/30 01:58:39;;;;;;;5.00;4.80;;;;;;;;;;5126034;23;20392;-59
2023/05/30 02:01:00;;;;;;;5.82;5.63;;;;;;;;;;5126020;23;20036;-59
2023/05/30 02:03:23;;;;;;;4.75;4.63;;;;;;;;;;5125780;23;20023;-59
2023/05/30 02:05:43;;;;;;;5.70;5.32;;;;;;;;;;5125827;23;20036;-59
2023/05/30 02:08:04;;;;;;;4.70;4.60;;;;;;;;;;5125882;23;20378;-59
2023/05/30 02:10:24;;;;;;;5.03;4.82;;;;;;;;;;5125860;23;20028;-59
2023/05/30 02:12:44;;;;;;;5.63;5.32;;;;;;;;;;5124463;23;20251;-59
2023/05/30 02:15:05;;;;;;;6.20;5.72;;;;;;;;;;5125981;23;20028;-59
2023/05/30 02:17:25;;;;;;;5.05;4.85;;;;;;;;;;5125833;23;20023;-59
2023/05/30 02:19:46;;;;;;;4.78;4.57;;;;;;;;;;5103176;23;20360;-59
2023/05/30 02:22:08;;;;;;;4.80;4.70;;;;;;;;;;5125891;23;20071;-59
2023/05/30 02:24:28;;;;;;;5.22;5.03;;;;;;;;;;5125834;23;20059;-59
2023/05/30 02:26:48;;;;;;;4.53;4.43;;;;;;;;;;5125550;23;20208;-59
2023/05/30 02:29:09;;;;;;;5.28;4.80;;;;;;;;;;5125775;23;20035;-58
2023/05/30 02:31:29;;;;;;;5.32;5.18;;;;;;;;;;5125847;23;20028;-59
2023/05/30 02:33:50;;;;;;;5.32;5.13;;;;;;;;;;5125577;23;20023;-58
2023/05/30 02:36:10;;;;;;;5.25;5.15;;;;;;;;;;5125566;23;20027;-58
2023/05/30 02:38:30;;;;;;;5.18;5.07;;;;;;;;;;5125757;23;20028;-59
2023/05/30 02:40:50;;;;;;;6.18;5.68;;;;;;;;;;5125545;23;20031;-59
2023/05/30 02:43:12;;;;;;;5.32;5.13;;;;;;;;;;5125458;23;20215;-59
2023/05/30 02:45:41;;;;;;;5.35;4.97;;;;;;;;;;5125716;23;20060;-59
2023/05/30 02:48:01;;;;;;;5.57;5.47;;;;;;;;;;5125568;23;20105;-59
2023/05/30 02:50:22;;;;;;;5.40;5.20;;;;;;;;;;5125439;23;20027;-58
2023/05/30 02:52:42;;;;;;;6.40;6.00;;;;;;;;;;5125525;23;20024;-58
2023/05/30 02:55:03;;;;;;;4.70;4.60;;;;;;;;;;5125667;23;20379;-59
2023/05/30 02:57:24;;;;;;;4.75;4.55;;;;;;;;;;5125436;23;20085;-58
2023/05/30 02:59:44;;;;;;;5.30;5.10;;;;;;;;;;5125465;23;20043;-58
2023/05/30 03:02:04;;;;;;;4.90;4.72;;;;;;;;;;5125607;23;20024;-59
2023/05/30 03:04:24;;;;;;;5.03;4.82;;;;;;;;;;5125478;23;20028;-59
2023/05/30 03:06:49;;;;;;;6.10;5.53;;;;;;;;;;5125330;23;20335;-58
2023/05/30 03:09:11;;;;;;;5.75;5.55;;;;;;;;;;5125405;23;20024;-58
2023/05/30 03:11:31;;;;;;;6.10;5.47;;;;;;;;;;5102812;23;20036;-59
2023/05/30 03:13:51;;;;;;;5.25;5.13;;;;;;;;;;5125297;23;20063;-58
2023/05/30 03:16:11;;;;;;;6.20;5.90;;;;;;;;;;5125445;23;20129;-59
2023/05/30 03:18:31;;;;;;;6.38;5.50;;;;;;;;;;5125451;23;20084;-59
2023/05/30 03:20:51;;;;;;;6.95;6.50;;;;;;;;;;5125148;23;20024;-58
2023/05/30 03:23:12;;;;;;;5.53;5.13;;;;;;;;;;5125232;23;20028;-58
2023/05/30 03:25:33;;;;;;;6.18;5.72;;;;;;;;;;5125472;23;20060;-59
2023/05/30 03:27:53;;;;;;;6.28;6.03;;;;;;;;;;5125283;23;20032;-58
2023/05/30 03:30:14;;;;;;;6.38;6.03;;;;;;;;;;5125176;23;20039;-58
2023/05/30 03:32:35;;;;;;;6.30;5.88;;;;;;;;;;5125418;23;20027;-59
2023/05/30 03:34:55;;;;;;;5.78;5.50;;;;;;;;;;5125525;23;20055;-58
2023/05/30 03:37:15;;;;;;;6.45;6.07;;;;;;;;;;5126427;23;20059;-58
2023/05/30 03:39:35;;;;;;;6.28;6.10;;;;;;;;;;5126461;23;20024;-59
2023/05/30 03:41:56;;;;;;;5.82;5.72;;;;;;;;;;5126463;23;20068;-58
2023/05/30 03:44:16;;;;;;;6.53;6.03;;;;;;;;;;5126256;23;20024;-58
2023/05/30 03:46:36;;;;;;;7.13;6.75;;;;;;;;;;5126492;23;20070;-58
2023/05/30 03:48:56;;;;;;;7.53;7.22;;;;;;;;;;5126378;23;20055;-59
2023/05/30 03:51:17;;;;;;;7.50;7.18;;;;;;;;;;5126278;23;20024;-58
2023/05/30 03:53:37;;;;;;;7.20;6.85;;;;;;;;;;5126270;23;20028;-58
2023/05/30 03:55:57;;;;;;;7.15;6.63;;;;;;;;;;5126450;23;20039;-58
2023/05/30 03:58:17;;;;;;;7.55;7.25;;;;;;;;;;5126236;23;20023;-58
2023/05/30 04:00:37;;;;;;;6.10;5.90;;;;;;;;;;5126300;23;20027;-58
2023/05/30 04:02:59;;;;;;;6.65;6.30;;;;;;;;;;5124496;23;20024;-58
2023/05/30 04:05:19;;;;;;;7.15;6.68;;;;;;;;;;5125681;23;20027;-59
2023/05/30 04:07:39;;;;;;;7.30;6.93;;;;;;;;;;5126110;23;20083;-59
2023/05/30 04:09:59;;;;;;;6.70;6.38;;;;;;;;;;5103188;23;20028;-59
2023/05/30 04:12:19;;;;;;;6.72;6.32;;;;;;;;;;5104104;23;20024;-59
2023/05/30 04:14:40;;;;;;;7.70;7.13;;;;;;;;;;5126238;23;20062;-58
2023/05/30 04:17:00;;;;;;;6.30;6.05;;;;;;;;;;5126372;23;20035;-58
2023/05/30 04:19:20;;;;;;;6.45;6.05;;;;;;;;;;5126263;23;20386;-58
2023/05/30 04:21:40;;;;;;;6.63;6.43;;;;;;;;;;5126158;23;20059;-58
2023/05/30 04:24:00;;;;;;;6.93;6.57;;;;;;;;;;5104133;23;20253;-59
2023/05/30 04:26:22;;;;;;;8.15;7.50;;;;;;;;;;5126279;23;20247;-58
2023/05/30 04:28:43;;;;;;;8.23;7.75;;;;;;;;;;5126079;23;20067;-58
2023/05/30 04:31:05;;;;;;;6.53;6.30;;;;;;;;;;5126148;23;20039;-58
2023/05/30 04:33:40;;;;;;;6.75;6.50;;;;;;;;;;5126313;23;20074;-58
2023/05/30 04:36:18;;;;;;;7.43;6.97;;;;;;;;;;5126239;23;20060;-60
2023/05/30 04:38:38;;;;;;;6.65;6.35;;;;;;;;;;5126220;23;20216;-61
2023/05/30 04:41:02;;;;;;;5.63;5.38;;;;;;;;;;5126049;23;20028;-60
2023/05/30 04:43:22;;;;;;;6.72;6.43;;;;;;;;;;5126178;23;20024;-61
2023/05/30 04:45:44;;;;;;;6.05;5.95;;;;;;;;;;5124164;23;20377;-61
2023/05/30 04:48:05;;;;;;;6.43;5.90;;;;;;;;;;5125461;23;20064;-61
2023/05/30 04:50:26;;;;;;;6.75;6.47;;;;;;;;;;5126145;23;20028;-60
2023/05/30 04:52:47;;;;;;;6.82;6.25;;;;;;;;;;5126268;23;20367;-60
2023/05/30 04:55:08;;;;;;;6.60;6.40;;;;;;;;;;5104480;23;20045;-60
2023/05/30 04:57:28;;;;;;;6.72;6.53;;;;;;;;;;5126092;23;20028;-60
2023/05/30 04:59:48;;;;;;;6.38;6.05;;;;;;;;;;5126316;23;20027;-60
2023/05/30 05:02:10;;;;;;;6.63;6.43;;;;;;;;;;5126147;23;20051;-61
2023/05/30 05:04:30;;;;;;;6.00;5.78;;;;;;;;;;5126103;23;20072;-60
2023/05/30 05:06:50;;;;;;;7.13;6.75;;;;;;;;;;5126221;23;20028;-60
2023/05/30 05:09:10;;;;;;;6.07;5.88;;;;;;;;;;5126035;23;20071;-61
2023/05/30 05:11:31;;;;;;;7.13;6.80;;;;;;;;;;5126427;23;20087;-60
2023/05/30 05:13:51;;;;;;;7.47;6.03;;;;;;;;;;5103933;23;20051;-60
2023/05/30 05:16:11;;;;;;;6.22;5.70;;;;;;;;;;5126113;23;20023;-58
2023/05/30 05:18:32;;;;;;;6.80;6.22;;;;;;;;;;5126006;23;20024;-58
2023/05/30 05:20:52;;;;;;;7.40;6.97;;;;;;;;;;5125957;23;20036;-58
2023/05/30 05:23:13;;;;;;;6.10;5.68;;;;;;;;;;5126111;23;20023;-58
2023/05/30 05:25:33;;;;;;;7.18;6.88;;;;;;;;;;5126008;23;20063;-58
2023/05/30 05:27:53;;;;;;;6.28;5.88;;;;;;;;;;5125924;23;20288;-58
2023/05/30 05:30:13;;;;;;;5.88;5.65;;;;;;;;;;5126091;23;20378;-58
2023/05/30 05:32:36;;;;;;;6.05;5.65;;;;;;;;;;5126041;23;20048;-57
2023/05/30 05:34:56;;;;;;;5.82;5.63;;;;;;;;;;5126000;23;20219;-58
2023/05/30 05:37:16;;;;;;;5.93;5.53;;;;;;;;;;5126078;23;20339;-57
2023/05/30 05:39:36;;;;;;;5.68;5.47;;;;;;;;;;5125908;23;20073;-57
2023/05/30 05:41:57;;;;;;;5.55;5.35;;;;;;;;;;5126005;23;20265;-58
2023/05/30 05:44:17;;;;;;;5.65;5.35;;;;;;;;;;5126014;23;20024;-58
2023/05/30 05:46:37;;;;;;;6.13;5.90;;;;;;;;;;5126059;23;20063;-58
2023/05/30 05:48:58;;;;;;;4.55;4.38;;;;;;;;;;5101945;23;20032;-58
2023/05/30 05:51:18;;;;;;;4.85;4.75;;;;;;;;;;5125998;23;20063;-57
2023/05/30 05:53:38;;;;;;;5.68;5.55;;;;;;;;;;5125990;23;20059;-58
2023/05/30 05:56:00;;;;;;;5.30;5.10;;;;;;;;;;5105197;23;20028;-58
2023/05/30 05:58:20;;;;;;;6.15;5.82;;;;;;;;;;5125525;23;20023;-58
2023/05/30 06:00:40;;;;;;;4.75;4.63;;;;;;;;;;5125912;23;20216;-58
2023/05/30 06:03:01;;;;;;;3.78;3.60;;;;;;;;;;5125909;23;20152;-58
2023/05/30 06:05:22;;;;;;;5.70;5.50;;;;;;;;;;5125887;23;20024;-58
2023/05/30 06:07:42;;;;;;;5.40;5.20;;;;;;;;;;5125855;23;20027;-58
2023/05/30 06:10:03;;;;;;;5.57;5.28;;;;;;;;;;5125880;23;20088;-58
2023/05/30 06:12:23;;;;;;;5.25;5.05;;;;;;;;;;5125838;23;20023;-58
2023/05/30 06:14:43;;;;;;;4.85;4.45;;;;;;;;;;5125787;23;20032;-58
2023/05/30 06:17:03;;;;;;;5.80;5.50;;;;;;;;;;5125839;23;20346;-58
2023/05/30 06:19:23;;;;;;;6.78;5.43;;;;;;;;;;5125771;23;20031;-58
2023/05/30 06:21:44;;;;;;;4.78;4.57;;;;;;;;;;5125700;23;20055;-58
2023/05/30 06:24:05;;;;;;;4.97;4.55;;;;;;;;;;5125764;23;20049;-58
2023/05/30 06:26:26;;;;;;;4.00;3.80;;;;;;;;;;5125823;23;20044;-58
2023/05/30 06:28:50;;;;;;;4.40;4.20;;;;;;;;;;5125588;23;20027;-58
2023/05/30 06:31:10;;;;;;;4.78;4.47;;;;;;;;;;5125710;23;20024;-58
2023/05/30 06:33:30;;;;;;;4.82;4.57;;;;;;;;;;5125689;23;20083;-58
2023/05/30 06:35:51;;;;;;;5.05;4.75;;;;;;;;;;5125622;23;20024;-58
2023/05/30 06:38:11;;;;;;;5.38;5.18;;;;;;;;;;5125740;23;20366;-58
2023/05/30 06:40:32;;;;;;;5.78;5.38;;;;;;;;;;5124004;23;20052;-58
2023/05/30 06:42:52;;;;;;;4.30;4.05;;;;;;;;;;5125611;23;20024;-58
2023/05/30 06:45:13;;;;;;;5.00;4.80;;;;;;;;;;5125524;23;20028;-58
2023/05/30 06:47:33;;;;;;;4.50;4.40;;;;;;;;;;5102482;23;20040;-58
2023/05/30 06:49:53;;;;;;;5.05;4.85;;;;;;;;;;5125637;23;20032;-58
2023/05/30 06:52:14;;;;;;;5.43;4.93;;;;;;;;;;5125444;23;20051;-58
2023/05/30 06:54:34;;;;;;;4.97;4.60;;;;;;;;;;5125491;23;20039;-58
2023/05/30 06:56:54;;;;;;;5.38;5.10;;;;;;;;;;5125602;23;20024;-58
2023/05/30 06:59:14;;;;;;;5.28;4.43;;;;;;;;;;5125403;23;20073;-58
2023/05/30 07:01:35;;;;;;;5.57;4.60;;;;;;;;;;5125529;23;20055;-58
2023/05/30 07:03:56;;;;;;;5.43;5.05;;;;;;;;;;5125473;23;20077;-58
2023/05/30 07:06:16;;;;;;;5.40;4.32;;;;;;;;;;5125383;23;20068;-58
2023/05/30 07:08:37;;;;;;;5.93;4.28;;;;;;;;;;5125300;23;20343;-58
2023/05/30 07:10:57;;;;;;;4.30;4.10;;;;;;;;;;5126213;23;20052;-58
2023/05/30 07:13:18;;;;;;;3.53;3.28;;;;;;;;;;5126494;23;20043;-58
2023/05/30 07:15:38;;;;;;;4.60;4.40;;;;;;;;;;5126433;23;20068;-58
2023/05/30 07:17:58;;;;;;;4.72;4.43;;;;;;;;;;5126478;23;20023;-58
2023/05/30 07:20:22;;;;;;;5.38;4.10;;;;;;;;;;5126529;23;20063;-58
2023/05/30 07:22:43;;;;;;;4.50;3.65;;;;;;;;;;5126402;23;20024;-58
2023/05/30 07:25:03;;;;;;;5.35;3.50;;;;;;;;;;5104345;23;20089;-58
2023/05/30 07:27:23;;;;;;;4.80;3.35;;;;;;;;;;5126526;23;20330;-58
2023/05/30 07:29:44;;;;;;;3.65;3.17;;;;;;;;;;5126394;23;20028;-58
2023/05/30 07:32:04;;;;;;;6.53;2.92;;;;;;;;;;5126478;23;20024;-58
2023/05/30 07:34:25;;;;;;;7.72;3.03;;;;;;;;;;5126527;23;20027;-58
2023/05/30 07:36:45;;;;;;;4.50;2.63;;;;;;;;;;5126487;23;20359;-56
2023/05/30 07:39:05;;;;;;;3.50;3.30;;;;;;;;;;5126370;23;20051;-57
2023/05/30 07:41:26;;;;;;;2.58;2.40;;;;;;;;;;5126493;23;20220;-56
2023/05/30 07:43:46;;;;;;;2.35;2.25;;;;;;;;;;5102680;23;20049;-57
2023/05/30 07:46:06;;;;;;;2.50;2.30;;;;;;;;;;5126212;23;20035;-56
2023/05/30 07:48:27;;;;;;;1.95;1.85;;;;;;;;;;5134572;23;20024;-56
2023/05/30 07:50:47;;;;;;;1.77;1.67;;;;;;;;;;5126501;23;20060;-56
2023/05/30 07:53:07;;;;;;;2.38;2.28;;;;;;;;;;5126364;23;20067;-56
2023/05/30 07:55:28;;;;;;;1.90;1.83;;;;;;;;;;5126443;23;20103;-56
2023/05/30 07:57:48;;;;;;;3.67;2.10;;;;;;;;;;5126449;23;20024;-56
2023/05/30 08:00:09;;;;;;;2.97;2.78;;;;;;;;;;5126325;23;20081;-57
2023/05/30 08:02:29;;;;;;;2.03;1.92;;;;;;;;;;5126427;23;20032;-57
2023/05/30 08:04:49;;;;;;;1.95;1.85;;;;;;;;;;5134748;23;20331;-56
2023/05/30 08:07:10;;;;;;;1.67;1.58;;;;;;;;;;5126335;23;20264;-57
2023/05/30 08:09:30;;;;;;;2.13;2.00;;;;;;;;;;5126282;23;20032;-56
2023/05/30 08:11:52;;;;;;;2.17;2.03;;;;;;;;;;5126412;23;20080;-57
2023/05/30 08:14:12;;;;;;;2.08;1.55;;;;;;;;;;5126240;23;20027;-56
2023/05/30 08:16:33;;;;;;;1.88;1.77;;;;;;;;;;5126181;23;20023;-56
2023/05/30 08:18:53;;;;;;;2.45;1.38;;;;;;;;;;5126353;23;20024;-57
2023/05/30 08:21:14;;;;;;;2.80;1.45;;;;;;;;;;5126195;23;20079;-57
2023/05/30 08:23:34;;;;;;;1.20;1.20;;;;;;;;;;5126152;23;20260;-56
2023/05/30 08:25:55;;;;;;;2.08;1.77;;;;;;;;;;5126313;23;20083;-57
2023/05/30 08:28:16;;;;;;;2.13;1.23;;;;;;;;;;5126310;23;20024;-56
2023/05/30 08:30:36;;;;;;;2.70;1.40;;;;;;;;;;5126292;23;20027;-57
2023/05/30 08:32:56;;;;;;;1.52;1.42;;;;;;;;;;5126344;23;20024;-56
2023/05/30 08:35:16;;;;;;;1.48;1.40;;;;;;;;;;5124258;23;20214;-56
2023/05/30 08:37:37;;;;;;;1.40;1.30;;;;;;;;;;5126251;23;20024;-56
2023/05/30 08:39:57;;;;;;;1.42;1.42;;;;;;;;;;5101443;23;20048;-56
2023/05/30 08:42:18;;;;;;;4.05;3.72;;;;;;;;;;5126329;23;20024;-56
2023/05/30 08:44:38;;;;;;;2.25;2.13;;;;;;;;;;5126485;23;20028;-57
2023/05/30 08:46:58;;;;;;;1.90;1.83;;;;;;;;;;5126077;23;20215;-57
2023/05/30 08:49:21;;;;;;;3.05;2.85;;;;;;;;;;5126245;23;20023;-57
2023/05/30 08:51:44;;;;;;;2.35;1.70;;;;;;;;;;5126336;23;20024;-56
2023/05/30 08:54:06;;;;;;;1.35;1.25;;;;;;;;;;5126129;23;20032;-56
2023/05/30 08:56:33;;;;;;;1.60;1.50;;;;;;;;;;5126266;23;20339;-56
2023/05/30 08:58:53;;;;;;;2.45;1.30;;;;;;;;;;5126340;23;20036;-56
2023/05/30 09:01:14;;;;;;;1.52;1.42;;;;;;;;;;5126158;23;20027;-56
2023/05/30 09:03:36;;;;;;;1.30;1.30;;;;;;;;;;5125984;23;20056;-56
2023/05/30 09:05:57;;;;;;;2.40;1.30;;;;;;;;;;5126149;23;20027;-57
2023/05/30 09:08:18;;;;;;;1.10;1.10;;;;;;;;;;5126116;23;20247;-56
2023/05/30 09:10:42;;;;;;;1.60;1.25;;;;;;;;;;5126019;23;20211;-56
2023/05/30 09:13:02;;;;;;;5.30;1.58;;;;;;;;;;5126123;23;20044;-56
2023/05/30 09:15:23;;;;;;;1.48;1.40;;;;;;;;;;5126262;23;20027;-56
2023/05/30 09:17:43;;;;;;;2.30;1.25;;;;;;;;;;5126065;23;20044;-56
2023/05/30 09:20:05;;;;;;;1.38;1.27;;;;;;;;;;5126036;23;20028;-57
2023/05/30 09:22:27;;;;;;;1.27;1.17;;;;;;;;;;5126195;23;20063;-56
2023/05/30 09:24:56;;;;;;;1.40;1.30;;;;;;;;;;5124048;23;20028;-57
2023/05/30 09:27:16;;;;;;;2.08;1.42;;;;;;;;;;5103826;23;20024;-57
2023/05/30 09:29:43;;;;;;;1.30;1.30;;;;;;;;;;5126059;23;20024;-57
2023/05/30 09:32:03;;;;;;;1.50;1.42;;;;;;;;;;5126032;23;20043;-57
2023/05/30 09:34:24;;;;;;;3.08;1.30;;;;;;;;;;5125874;23;20027;-57
2023/05/30 09:36:53;;;;;;;2.08;1.30;;;;;;;;;;5125836;23;20028;-57
2023/05/30 09:39:13;;;;;;;1.60;1.50;;;;;;;;;;5126112;23;20043;-57
2023/05/30 09:41:34;;;;;;;1.40;1.30;;;;;;;;;;5126073;23;20212;-57
2023/05/30 09:43:55;;;;;;;2.30;1.30;;;;;;;;;;5125845;23;20211;-57
2023/05/30 09:46:16;;;;;;;1.30;1.30;;;;;;;;;;5125913;23;20076;-57
2023/05/30 09:48:40;;;;;;;1.90;1.45;;;;;;;;;;5125985;23;20081;-57
2023/05/30 09:51:00;;;;;;;1.40;1.30;;;;;;;;;;5125941;23;20128;-57
2023/05/30 09:53:21;;;;;;;1.50;1.40;;;;;;;;;;5125716;23;20109;-57
2023/05/30 09:55:41;;;;;;;1.50;1.40;;;;;;;;;;5126040;23;20068;-57
2023/05/30 09:58:03;;;;;;;1.10;1.10;;;;;;;;;;5125967;23;20032;-57
2023/05/30 10:00:25;;;;;;;1.40;1.30;;;;;;;;;;5125803;23;20027;-56
2023/05/30 10:02:53;;;;;;;1.45;1.27;;;;;;;;;;5126092;23;20044;-57
2023/05/30 10:05:20;;;;;;;2.08;1.40;;;;;;;;;;5125994;23;20027;-57
2023/05/30 10:07:41;;;;;;;1.40;1.30;;;;;;;;;;5125862;23;20060;-57
2023/05/30 10:10:02;;;;;;;2.55;1.20;;;;;;;;;;5125692;23;20028;-57
2023/05/30 10:12:23;;;;;;;1.10;1.10;;;;;;;;;;5103038;23;20060;-57
2023/05/30 10:14:43;;;;;;;2.75;1.30;;;;;;;;;;5125939;23;20272;-57
2023/05/30 10:17:07;;;;;;;1.30;1.20;;;;;;;;;;5125714;23;20439;-57
2023/05/30 10:19:51;;;;;;;1.40;1.30;;;;;;;;;;5125933;23;20068;-57
2023/05/30 10:22:13;;;;;;;1.30;1.30;;;;;;;;;;5125835;23;20028;-56
2023/05/30 10:24:33;;;;;;;1.90;1.77;;;;;;;;;;5125948;23;20060;-56
2023/05/30 10:26:56;;;;;;;4.10;2.13;;;;;;;;;;5125664;23;20075;-56
2023/05/30 10:29:20;;;;;;;1.63;1.40;;;;;;;;;;5125592;23;20055;-57
2023/05/30 10:31:40;;;;;;;1.60;1.50;;;;;;;;;;5125850;23;20354;-57
2023/05/30 10:34:06;;;;;;;1.60;1.50;;;;;;;;;;5125798;23;20028;-57
2023/05/30 10:36:27;;;;;;;1.23;1.17;;;;;;;;;;5125569;23;20228;-57
2023/05/30 10:38:55;;;;;;;1.30;1.30;;;;;;;;;;5125757;23;20064;-57
2023/05/30 10:41:28;;;;;;;2.45;1.15;;;;;;;;;;5122916;23;20027;-57
2023/05/30 10:43:54;;;;;;;2.20;1.40;;;;;;;;;;5125913;23;20031;-57
2023/05/30 10:46:21;;;;;;;1.80;1.20;;;;;;;;;;5104981;23;20036;-57
2023/05/30 10:48:48;;;;;;;2.55;1.33;;;;;;;;;;5126523;23;20335;-57
2023/05/30 10:51:08;;;;;;;1.55;1.30;;;;;;;;;;5126799;23;20063;-57
2023/05/30 10:53:29;;;;;;;1.13;1.02;;;;;;;;;;5126806;23;20024;-56
2023/05/30 10:55:50;;;;;;;1.20;1.20;;;;;;;;;;5126532;23;20135;-57
2023/05/30 10:58:29;;;;;;;1.25;1.15;;;;;;;;;;5126752;23;20212;-57
2023/05/30 11:00:49;;;;;;;3.20;1.52;;;;;;;;;;5126741;23;20024;-56
2023/05/30 11:03:30;;;;;;;1.10;1.10;;;;;;;;;;5126719;23;20027;-57
2023/05/30 11:05:55;;;;;;;1.40;1.30;;;;;;;;;;5126577;23;20024;-57
2023/05/30 11:08:15;;;;;;;1.40;1.30;;;;;;;;;;5123485;23;20023;-57
2023/05/30 11:10:36;;;;;;;1.13;1.13;;;;;;;;;;5126778;23;20071;-57
2023/05/30 11:13:10;;;;;;;1.50;1.50;;;;;;;;;;5126184;23;20289;-58
2023/05/30 11:15:32;;;;;;;1.10;1.10;;;;;;;;;;5126546;23;20224;-57
2023/05/30 11:17:53;;;;;;;1.65;1.10;;;;;;;;;;5126531;23;20027;-57
2023/05/30 11:20:16;;;;;;;1.30;1.20;;;;;;;;;;5126724;23;20063;-57
2023/05/30 11:22:38;;;;;;;1.73;0.98;;;;;;;;;;5126617;23;20024;-57
2023/05/30 11:25:16;;;;;;;1.40;1.30;;;;;;;;;;5126433;23;20028;-57
2023/05/30 11:27:37;;;;;;;1.23;1.23;;;;;;;;;;5126360;23;20024;-57
2023/05/30 11:29:57;;;;;;;1.65;1.27;;;;;;;;;;5126642;23;20028;-57
2023/05/30 11:32:18;;;;;;;1.70;1.30;;;;;;;;;;5126619;23;20249;-57
2023/05/30 11:34:38;;;;;;;2.55;1.20;;;;;;;;;;5126356;23;20070;-57
2023/05/30 11:36:59;;;;;;;1.95;1.25;;;;;;;;;;5126560;23;20056;-57
2023/05/30 11:39:20;;;;;;;1.23;1.10;;;;;;;;;;5126440;23;20063;-57
2023/05/30 11:41:41;;;;;;;1.48;1.10;;;;;;;;;;5126407;23;20079;-57
2023/05/30 11:44:03;;;;;;;1.20;1.10;;;;;;;;;;5126473;23;20023;-57
2023/05/30 11:46:24;;;;;;;1.02;1.02;;;;;;;;;;5126599;23;20307;-57
2023/05/30 11:48:45;;;;;;;1.23;1.03;;;;;;;;;;5126316;23;20378;-56
2023/05/30 11:51:06;;;;;;;1.08;1.08;;;;;;;;;;5126393;23;20028;-57
2023/05/30 11:53:27;;;;;;;1.17;1.10;;;;;;;;;;5125802;23;20060;-57
2023/05/30 11:55:48;;;;;;;2.45;1.02;;;;;;;;;;5126132;23;20227;-56
2023/05/30 11:58:08;;;;;;;1.10;1.10;;;;;;;;;;5126330;23;20028;-57
2023/05/30 12:00:28;;;;;;;1.42;1.33;;;;;;;;;;5104513;23;20025;-57
2023/05/30 12:02:48;;;;;;;1.48;1.17;;;;;;;;;;5126489;23;20083;-57
2023/05/30 12:05:09;;;;;;;1.48;1.45;;;;;;;;;;5126259;23;20027;-57
2023/05/30 12:07:30;;;;;;;1.30;1.20;;;;;;;;;;5104355;23;20027;-57
2023/05/30 12:09:51;;;;;;;1.20;1.20;;;;;;;;;;5104462;23;20029;-57
2023/05/30 12:12:11;;;;;;;1.20;1.20;;;;;;;;;;5126271;23;20252;-57
2023/05/30 12:14:48;;;;;;;3.15;1.30;;;;;;;;;;5126364;23;20060;-57
2023/05/30 12:17:11;;;;;;;1.65;1.10;;;;;;;;;;5126427;23;20271;-57
2023/05/30 12:19:32;;;;;;;4.72;1.20;;;;;;;;;;5126458;23;20081;-57
2023/05/30 12:21:52;;;;;;;1.05;1.05;;;;;;;;;;5126210;23;20269;-57
2023/05/30 12:24:13;;;;;;;1.35;1.10;;;;;;;;;;5126262;23;20048;-57
2023/05/30 12:26:33;;;;;;;1.20;1.10;;;;;;;;;;5126451;23;20063;-57
2023/05/30 12:28:54;;;;;;;1.27;1.27;;;;;;;;;;5126211;23;20062;-57
2023/05/30 12:31:21;;;;;;;1.40;1.20;;;;;;;;;;5126305;23;20216;-57
2023/05/30 12:33:41;;;;;;;1.88;1.10;;;;;;;;;;5126424;23;20024;-57
2023/05/30 12:36:01;;;;;;;2.40;1.35;;;;;;;;;;5104193;23;20027;-57
2023/05/30 12:38:21;;;;;;;1.88;0.90;;;;;;;;;;5126192;23;20220;-57
2023/05/30 12:40:43;;;;;;;1.50;1.00;;;;;;;;;;5126348;23;20061;-57
2023/05/30 12:43:03;;;;;;;1.20;1.20;;;;;;;;;;5102077;23;20028;-57
2023/05/30 12:45:23;;;;;;;1.33;1.05;;;;;;;;;;5126150;23;20327;-57
2023/05/30 12:47:44;;;;;;;1.85;1.10;;;;;;;;;;5103932;23;20055;-57
2023/05/30 12:50:04;;;;;;;1.27;1.17;;;;;;;;;;5105218;23;20060;-57
2023/05/30 12:52:26;;;;;;;3.42;1.00;;;;;;;;;;5126203;23;20028;-57
2023/05/30 12:54:47;;;;;;;2.45;1.33;;;;;;;;;;5126166;23;20059;-57
2023/05/30 12:57:08;;;;;;;1.40;1.30;;;;;;;;;;5126272;23;20326;-57
2023/05/30 12:59:28;;;;;;;1.23;1.13;;;;;;;;;;5126193;23;20024;-57
2023/05/30 13:01:48;;;;;;;1.48;1.17;;;;;;;;;;5126187;23;20060;-57
2023/05/30 13:04:09;;;;;;;1.25;1.20;;;;;;;;;;5126321;23;20024;-57
2023/05/30 13:06:31;;;;;;;1.85;1.20;;;;;;;;;;5126230;23;20027;-56
2023/05/30 13:08:52;;;;;;;1.58;1.20;;;;;;;;;;5125415;23;20032;-57
2023/05/30 13:11:12;;;;;;;1.30;1.20;;;;;;;;;;5126155;23;20024;-56
2023/05/30 13:13:32;;;;;;;1.42;1.42;;;;;;;;;;5126212;23;20335;-56
2023/05/30 13:15:53;;;;;;;1.45;1.10;;;;;;;;;;5126009;23;20059;-57
2023/05/30 13:18:13;;;;;;;1.90;1.20;;;;;;;;;;5126123;23;20035;-56
2023/05/30 13:20:34;;;;;;;2.08;1.23;;;;;;;;;;5126261;23;20079;-57
2023/05/30 13:22:55;;;;;;;1.85;1.40;;;;;;;;;;5126120;23;20028;-56
2023/05/30 13:25:15;;;;;;;1.48;1.17;;;;;;;;;;5126003;23;20056;-57
2023/05/30 13:27:35;;;;;;;1.30;1.30;;;;;;;;;;5126231;23;20040;-56
2023/05/30 13:29:55;;;;;;;1.38;1.20;;;;;;;;;;5126185;23;20356;-57
2023/05/30 13:32:16;;;;;;;1.17;1.08;;;;;;;;;;5126071;23;20073;-57
2023/05/30 13:34:37;;;;;;;1.23;1.13;;;;;;;;;;5104224;23;20125;-57
2023/05/30 13:36:57;;;;;;;2.53;1.00;;;;;;;;;;5126141;23;20120;-57
2023/05/30 13:39:18;;;;;;;1.25;1.25;;;;;;;;;;5125916;23;20212;-57
2023/05/30 13:41:38;;;;;;;2.65;1.25;;;;;;;;;;5102573;23;20059;-56
2023/05/30 13:43:59;;;;;;;1.17;1.05;;;;;;;;;;5126095;23;20206;-57
2023/05/30 13:46:19;;;;;;;1.38;1.27;;;;;;;;;;5104552;23;20339;-57
2023/05/30 13:48:39;;;;;;;1.33;1.25;;;;;;;;;;5125897;23;20066;-57
2023/05/30 13:51:00;;;;;;;1.10;1.10;;;;;;;;;;5126045;23;20204;-56
2023/05/30 13:53:21;;;;;;;1.05;1.05;;;;;;;;;;5126018;23;20060;-56
2023/05/30 13:55:55;;;;;;;1.75;1.13;;;;;;;;;;5125939;23;20073;-56
2023/05/30 13:58:15;;;;;;;1.27;1.27;;;;;;;;;;5125906;23;20051;-57
2023/05/30 14:00:35;;;;;;;1.92;1.10;;;;;;;;;;5125937;23;20024;-57
2023/05/30 14:02:56;;;;;;;0.82;0.82;;;;;;;;;;5125865;23;20068;-57
2023/05/30 14:05:16;;;;;;;0.90;0.90;;;;;;;;;;5125910;23;20060;-56
2023/05/30 14:07:39;;;;;;;0.90;0.90;;;;;;;;;;5126054;23;20036;-56
2023/05/30 14:09:59;;;;;;;1.17;0.90;;;;;;;;;;5125916;23;20031;-57